createdAt,value
2024-02-11T00:01:58.844Z,26.33
2024-02-11T00:04:29.697Z,31.60
2024-02-11T00:07:11.994Z,43.83
2024-02-11T00:09:49.685Z,31.57
2024-02-11T00:12:19.935Z,26.37
2024-02-11T00:15:02.326Z,34.87
2024-02-11T00:17:33.178Z,58.13
2024-02-11T00:20:12.756Z,26.20
2024-02-11T00:22:45.954Z,37.53
2024-02-11T00:25:25.817Z,35.40
2024-02-11T00:28:04.882Z,26.53
2024-02-11T00:30:43.159Z,27.83
2024-02-11T00:33:26.871Z,27.87
2024-02-11T00:36:04.054Z,29.03
2024-02-11T00:38:44.311Z,25.23
2024-02-11T00:41:22.101Z,21.67
2024-02-11T00:43:59.250Z,22.40
2024-02-11T00:46:31.686Z,22.00
2024-02-11T00:49:17.596Z,28.13
2024-02-11T00:51:54.844Z,25.87
2024-02-11T00:54:29.509Z,25.00
2024-02-11T00:57:13.306Z,19.57
2024-02-11T00:59:51.362Z,20.20
2024-02-11T01:02:39.409Z,18.77
2024-02-11T01:05:34.910Z,14.90
2024-02-11T01:08:13.901Z,16.70
2024-02-11T01:10:46.001Z,17.03
2024-02-11T01:13:31.750Z,16.83
2024-02-11T01:16:04.711Z,16.67
2024-02-11T01:18:44.857Z,13.97
2024-02-11T01:21:27.186Z,8.80
2024-02-11T01:24:05.031Z,14.18
2024-02-11T01:26:45.236Z,11.17
2024-02-11T01:29:20.440Z,10.77
2024-02-11T01:32:00.208Z,13.93
2024-02-11T01:34:37.112Z,18.40
2024-02-11T01:37:25.074Z,17.43
2024-02-11T01:40:02.782Z,12.00
2024-02-11T01:42:39.183Z,18.10
2024-02-11T01:45:14.797Z,13.77
2024-02-11T01:47:49.534Z,12.67
2024-02-11T01:50:25.054Z,13.40
2024-02-11T01:53:12.012Z,19.97
2024-02-11T01:55:48.976Z,11.80
2024-02-11T02:01:16.117Z,18.77
2024-02-11T02:03:52.779Z,16.90
2024-02-11T02:06:25.343Z,23.03
2024-02-11T02:08:57.273Z,29.70
2024-02-11T02:14:07.255Z,25.43
2024-02-11T02:16:50.919Z,18.77
2024-02-11T02:19:26.122Z,15.03
2024-02-11T02:22:02.136Z,16.93
2024-02-11T02:24:38.502Z,12.57
2024-02-11T02:27:10.255Z,12.83
2024-02-11T02:29:48.022Z,16.47
2024-02-11T02:32:37.423Z,12.33
2024-02-11T02:35:13.654Z,11.80
2024-02-11T02:37:45.230Z,13.03
2024-02-11T02:40:30.380Z,16.50
2024-02-11T02:43:21.562Z,17.13
2024-02-11T02:45:56.315Z,10.57
2024-02-11T02:48:30.165Z,18.27
2024-02-11T02:51:06.424Z,20.03
2024-02-11T02:53:39.569Z,20.33
2024-02-11T02:56:18.398Z,13.87
2024-02-11T02:58:53.122Z,10.83
2024-02-11T03:01:28.588Z,13.70
2024-02-11T03:03:58.265Z,22.80
2024-02-11T03:06:39.471Z,23.27
2024-02-11T03:09:12.957Z,17.67
2024-02-11T03:11:46.795Z,15.20
2024-02-11T03:14:29.993Z,14.20
2024-02-11T03:17:01.439Z,16.27
2024-02-11T03:19:37.409Z,14.75
2024-02-11T03:22:16.291Z,12.23
2024-02-11T03:24:46.434Z,14.07
2024-02-11T03:27:29.757Z,9.33
2024-02-11T03:30:30.395Z,12.00
2024-02-11T03:33:08.729Z,11.90
2024-02-11T03:35:44.008Z,12.97
2024-02-11T03:38:30.024Z,10.27
2024-02-11T03:40:59.846Z,13.43
2024-02-11T03:43:37.514Z,9.13
2024-02-11T03:46:15.641Z,11.23
2024-02-11T03:48:47.020Z,12.67
2024-02-11T03:51:20.799Z,8.48
2024-02-11T03:54:10.343Z,10.73
2024-02-11T03:56:46.868Z,9.30
2024-02-11T03:59:31.102Z,11.83
2024-02-11T04:02:06.032Z,13.32
2024-02-11T04:04:34.674Z,8.07
2024-02-11T04:07:06.267Z,14.90
2024-02-11T04:09:39.413Z,10.13
2024-02-11T04:12:15.398Z,11.53
2024-02-11T04:14:56.648Z,10.23
2024-02-11T04:17:32.999Z,8.05
2024-02-11T04:20:18.418Z,8.90
2024-02-11T04:22:55.732Z,7.03
2024-02-11T04:25:35.402Z,6.93
2024-02-11T04:28:09.982Z,13.00
2024-02-11T04:30:45.848Z,11.23
2024-02-11T04:33:23.319Z,9.67
2024-02-11T04:35:54.344Z,7.00
2024-02-11T04:38:37.367Z,5.53
2024-02-11T04:41:17.373Z,8.47
2024-02-11T04:46:46.912Z,6.13
2024-02-11T04:49:21.039Z,5.80
2024-02-11T04:52:02.968Z,6.53
2024-02-11T04:54:37.168Z,5.30
2024-02-11T04:57:11.082Z,10.73
2024-02-11T04:59:47.744Z,6.37
2024-02-11T05:02:19.705Z,6.73
2024-02-11T05:04:53.943Z,7.40
2024-02-11T05:07:31.935Z,10.57
2024-02-11T05:10:08.995Z,11.73
2024-02-11T05:12:44.115Z,8.40
2024-02-11T05:15:26.424Z,8.53
2024-02-11T05:18:02.719Z,6.70
2024-02-11T05:20:35.428Z,7.43
2024-02-11T05:23:15.563Z,6.97
2024-02-11T05:25:56.389Z,5.90
2024-02-11T05:28:31.264Z,7.43
2024-02-11T05:31:15.182Z,10.27
2024-02-11T05:33:49.039Z,8.33
2024-02-11T05:36:24.424Z,5.67
2024-02-11T05:38:57.775Z,7.03
2024-02-11T05:41:40.151Z,6.67
2024-02-11T05:44:18.161Z,10.33
2024-02-11T05:46:56.643Z,5.77
2024-02-11T05:49:32.918Z,5.03
2024-02-11T05:55:24.659Z,4.23
2024-02-11T05:58:02.073Z,3.83
2024-02-11T06:00:41.914Z,5.97
2024-02-11T06:03:24.990Z,5.90
2024-02-11T06:06:01.753Z,4.87
2024-02-11T06:08:41.141Z,4.20
2024-02-11T06:11:22.235Z,5.33
2024-02-11T06:13:59.323Z,7.37
2024-02-11T06:16:43.713Z,6.47
2024-02-11T06:19:16.012Z,6.33
2024-02-11T06:21:49.801Z,4.83
2024-02-11T06:24:28.966Z,6.20
2024-02-11T06:27:02.033Z,5.70
2024-02-11T06:29:35.935Z,6.13
2024-02-11T06:32:06.752Z,9.37
2024-02-11T06:34:42.571Z,6.33
2024-02-11T06:37:23.047Z,5.87
2024-02-11T06:42:54.721Z,5.87
2024-02-11T06:45:31.414Z,6.87
2024-02-11T06:48:07.855Z,9.43
2024-02-11T06:50:39.047Z,12.23
2024-02-11T06:53:18.277Z,11.53
2024-02-11T06:55:56.509Z,14.90
2024-02-11T06:58:39.206Z,38.93
2024-02-11T07:01:18.391Z,17.70
2024-02-11T07:03:51.395Z,10.33
2024-02-11T07:06:31.874Z,12.80
2024-02-11T07:09:04.916Z,8.13
2024-02-11T07:11:39.191Z,7.00
2024-02-11T07:14:19.298Z,14.23
2024-02-11T07:16:57.818Z,19.03
2024-02-11T07:19:31.208Z,17.10
2024-02-11T07:22:07.761Z,10.13
2024-02-11T07:24:40.931Z,8.47
2024-02-11T07:27:18.759Z,7.27
2024-02-11T07:29:57.098Z,8.67
2024-02-11T07:32:33.246Z,7.60
2024-02-11T07:35:04.400Z,7.10
2024-02-11T07:37:40.264Z,8.93
2024-02-11T07:40:18.095Z,10.00
2024-02-11T07:42:55.524Z,9.53
2024-02-11T07:45:28.053Z,8.77
2024-02-11T07:48:05.745Z,11.70
2024-02-11T07:50:43.606Z,8.27
2024-02-11T07:53:21.134Z,9.43
2024-02-11T07:55:57.747Z,8.60
2024-02-11T07:58:39.999Z,8.60
2024-02-11T08:01:12.420Z,7.40
2024-02-11T08:03:45.236Z,6.70
2024-02-11T08:06:28.721Z,6.67
2024-02-11T08:09:20.891Z,6.63
2024-02-11T08:11:57.368Z,6.45
2024-02-11T08:14:31.432Z,6.67
2024-02-11T08:17:06.827Z,4.77
2024-02-11T08:19:45.083Z,7.00
2024-02-11T08:22:17.391Z,6.07
2024-02-11T08:24:51.583Z,7.83
2024-02-11T08:27:22.605Z,10.63
2024-02-11T08:30:08.987Z,15.27
2024-02-11T08:32:42.643Z,23.00
2024-02-11T08:35:24.286Z,19.30
2024-02-11T08:37:59.519Z,11.85
2024-02-11T08:40:28.570Z,18.27
2024-02-11T08:43:03.518Z,11.73
2024-02-11T08:45:38.392Z,10.67
2024-02-11T08:48:09.524Z,13.47
2024-02-11T08:50:54.365Z,11.30
2024-02-11T08:53:29.426Z,16.10
2024-02-11T08:56:07.436Z,10.40
2024-02-11T08:58:54.930Z,9.57
2024-02-11T09:01:33.741Z,9.33
2024-02-11T09:04:04.898Z,9.10
2024-02-11T09:06:43.752Z,10.38
2024-02-11T09:09:28.253Z,10.23
2024-02-11T09:12:08.218Z,8.27
2024-02-11T09:14:51.869Z,9.97
2024-02-11T09:17:29.694Z,29.70
2024-02-11T09:20:08.520Z,23.70
2024-02-11T09:22:40.901Z,36.80
2024-02-11T09:25:14.470Z,12.10
2024-02-11T09:27:54.793Z,7.33
2024-02-11T09:30:31.912Z,11.90
2024-02-11T09:36:04.487Z,10.47
2024-02-11T09:38:42.620Z,8.30
2024-02-11T09:41:25.840Z,9.90
2024-02-11T09:44:06.205Z,10.57
2024-02-11T09:46:41.771Z,9.93
2024-02-11T09:49:37.844Z,4.10
2024-02-11T09:52:22.447Z,10.67
2024-02-11T09:55:04.697Z,3.53
2024-02-11T09:57:38.257Z,7.20
2024-02-11T10:00:11.246Z,7.22
2024-02-11T10:02:45.083Z,8.47
2024-02-11T10:05:14.971Z,7.63
2024-02-11T10:07:49.747Z,4.57
2024-02-11T10:10:24.243Z,4.83
2024-02-11T10:12:53.303Z,4.53
2024-02-11T10:15:26.299Z,6.23
2024-02-11T10:18:04.807Z,4.97
2024-02-11T10:20:50.942Z,4.33
2024-02-11T10:23:34.516Z,4.87
2024-02-11T10:26:25.647Z,7.13
2024-02-11T10:29:07.739Z,3.00
2024-02-11T10:31:39.243Z,2.23
2024-02-11T10:34:18.444Z,2.57
2024-02-11T10:36:54.939Z,2.43
2024-02-11T10:39:35.308Z,5.82
2024-02-11T10:42:11.641Z,4.03
2024-02-11T10:44:44.729Z,6.57
2024-02-11T10:47:18.064Z,5.07
2024-02-11T10:49:52.771Z,5.50
2024-02-11T10:52:27.607Z,3.53
2024-02-11T10:55:11.677Z,2.97
2024-02-11T10:58:03.400Z,5.27
2024-02-11T11:00:38.818Z,8.63
2024-02-11T11:03:13.284Z,6.07
2024-02-11T11:05:49.539Z,4.10
2024-02-11T11:08:36.689Z,3.30
2024-02-11T11:11:17.643Z,4.10
2024-02-11T11:13:53.062Z,5.77
2024-02-11T11:16:56.577Z,6.17
2024-02-11T11:19:39.438Z,8.00
2024-02-11T11:22:15.079Z,7.60
2024-02-11T11:24:53.158Z,5.37
2024-02-11T11:27:33.151Z,5.33
2024-02-11T11:30:15.123Z,3.60
2024-02-11T11:35:45.460Z,3.83
2024-02-11T11:38:15.281Z,3.53
2024-02-11T11:40:49.705Z,4.63
2024-02-11T11:46:19.753Z,5.17
2024-02-11T11:48:57.094Z,3.40
2024-02-11T11:51:35.579Z,4.17
2024-02-11T11:54:11.411Z,3.60
2024-02-11T11:56:59.701Z,5.27
2024-02-11T11:59:39.126Z,7.00
2024-02-11T12:02:16.088Z,4.30
2024-02-11T12:04:50.142Z,4.93
2024-02-11T12:07:20.824Z,2.83
2024-02-11T12:10:01.923Z,6.20
2024-02-11T12:12:40.387Z,3.83
2024-02-11T12:15:22.686Z,4.00
2024-02-11T12:17:56.193Z,3.70
2024-02-11T12:20:30.049Z,3.70
2024-02-11T12:23:12.007Z,3.80
2024-02-11T12:25:46.520Z,5.07
2024-02-11T12:28:28.630Z,4.77
2024-02-11T12:31:17.796Z,3.30
2024-02-11T12:34:00.245Z,8.37
2024-02-11T12:36:38.356Z,4.40
2024-02-11T12:39:18.537Z,5.43
2024-02-11T12:42:06.609Z,5.17
2024-02-11T12:44:44.825Z,3.90
2024-02-11T12:47:18.772Z,5.37
2024-02-11T12:49:56.493Z,7.00
2024-02-11T12:52:38.223Z,6.97
2024-02-11T12:55:12.362Z,6.10
2024-02-11T12:57:49.473Z,8.00
2024-02-11T13:00:24.464Z,6.33
2024-02-11T13:05:40.766Z,5.73
2024-02-11T13:08:19.472Z,8.80
2024-02-11T13:10:57.749Z,5.40
2024-02-11T13:13:29.338Z,5.57
2024-02-11T13:15:58.450Z,5.30
2024-02-11T13:18:35.117Z,5.00
2024-02-11T13:21:20.132Z,5.10
2024-02-11T13:23:54.962Z,5.00
2024-02-11T13:26:29.737Z,4.60
2024-02-11T13:29:06.058Z,5.43
2024-02-11T13:31:41.079Z,4.63
2024-02-11T13:34:22.324Z,7.03
2024-02-11T13:36:58.002Z,5.18
2024-02-11T13:39:34.529Z,5.30
2024-02-11T13:42:06.697Z,3.70
2024-02-11T13:44:50.514Z,4.10
2024-02-11T13:47:22.025Z,7.10
2024-02-11T13:49:59.084Z,4.73
2024-02-11T13:52:32.894Z,6.07
2024-02-11T13:55:08.504Z,4.67
2024-02-11T13:57:44.901Z,5.83
2024-02-11T14:00:26.977Z,4.23
2024-02-11T14:03:03.353Z,4.83
2024-02-11T14:05:36.117Z,3.80
2024-02-11T14:08:17.890Z,5.97
2024-02-11T14:10:50.146Z,9.30
2024-02-11T14:16:24.951Z,7.70
2024-02-11T14:18:56.795Z,4.30
2024-02-11T14:21:34.081Z,4.17
2024-02-11T14:24:11.093Z,15.27
2024-02-11T14:29:24.833Z,10.13
2024-02-11T14:32:02.480Z,10.87
2024-02-11T14:34:35.235Z,6.70
2024-02-11T14:37:11.050Z,8.07
2024-02-11T14:39:46.264Z,2.63
2024-02-11T14:42:19.043Z,2.30
2024-02-11T14:44:56.734Z,2.40
2024-02-11T14:47:31.855Z,2.20
2024-02-11T14:50:06.211Z,5.83
2024-02-11T14:52:45.039Z,3.57
2024-02-11T14:55:29.730Z,5.87
2024-02-11T14:58:15.614Z,4.77
2024-02-11T15:00:54.165Z,2.57
2024-02-11T15:03:37.961Z,2.47
2024-02-11T15:06:20.007Z,2.90
2024-02-11T15:08:55.763Z,3.87
2024-02-11T15:11:29.883Z,3.97
2024-02-11T15:14:15.653Z,2.30
2024-02-11T15:17:01.701Z,2.63
2024-02-11T15:19:40.166Z,1.63
2024-02-11T15:25:03.921Z,2.73
2024-02-11T15:27:38.832Z,3.37
2024-02-11T15:30:16.013Z,1.93
2024-02-11T15:32:52.614Z,5.70
2024-02-11T15:35:34.313Z,4.73
2024-02-11T15:38:36.652Z,4.30
2024-02-11T15:41:10.946Z,2.83
2024-02-11T15:43:58.589Z,1.50
2024-02-11T15:46:31.793Z,4.93
2024-02-11T15:49:08.687Z,9.87
2024-02-11T15:51:40.415Z,11.00
2024-02-11T15:54:16.193Z,17.47
2024-02-11T15:56:53.342Z,40.67
2024-02-11T15:59:26.029Z,30.90
2024-02-11T16:02:05.900Z,9.67
2024-02-11T16:04:50.920Z,13.20
2024-02-11T16:07:24.120Z,28.27
2024-02-11T16:10:09.829Z,31.33
2024-02-11T16:13:06.299Z,12.10
2024-02-11T16:15:39.073Z,12.33
2024-02-11T16:20:59.790Z,6.40
2024-02-11T16:26:35.773Z,19.70
2024-02-11T16:29:08.279Z,77.73
2024-02-11T16:32:01.809Z,106.70
2024-02-11T16:34:34.006Z,72.25
2024-02-11T16:37:08.643Z,49.67
2024-02-11T16:39:39.174Z,27.70
2024-02-11T16:42:18.606Z,38.13
2024-02-11T16:44:54.803Z,26.97
2024-02-11T16:47:42.040Z,16.83
2024-02-11T16:50:20.735Z,15.63
2024-02-11T16:52:50.108Z,14.13
2024-02-11T16:55:33.915Z,12.40
2024-02-11T16:58:07.820Z,4.77
2024-02-11T17:00:43.851Z,2.70
2024-02-11T17:03:16.084Z,4.70
2024-02-11T17:05:56.138Z,7.73
2024-02-11T17:08:29.488Z,86.00
2024-02-11T17:11:08.078Z,85.77
2024-02-11T17:13:54.750Z,110.68
2024-02-11T17:16:28.677Z,223.27
2024-02-11T17:19:02.154Z,47.20
2024-02-11T17:21:33.334Z,36.37
2024-02-11T17:24:10.136Z,63.70
2024-02-11T17:26:44.389Z,27.40
2024-02-11T17:29:17.383Z,32.13
2024-02-11T17:31:53.829Z,63.57
2024-02-11T17:34:32.994Z,61.90
2024-02-11T17:37:11.613Z,12.67
2024-02-11T17:39:53.964Z,11.07
2024-02-11T17:42:40.162Z,7.33
2024-02-11T17:45:14.911Z,13.70
2024-02-11T17:47:53.262Z,42.47
2024-02-11T17:50:22.021Z,18.37
2024-02-11T17:52:56.639Z,19.50
2024-02-11T17:55:32.827Z,17.17
2024-02-11T17:58:13.703Z,9.83
2024-02-11T18:00:57.056Z,6.33
2024-02-11T18:03:34.764Z,4.63
2024-02-11T18:06:16.177Z,4.07
2024-02-11T18:08:47.185Z,4.88
2024-02-11T18:11:22.690Z,10.10
2024-02-11T18:14:11.737Z,4.03
2024-02-11T18:16:45.586Z,4.33
2024-02-11T18:19:17.658Z,5.90
2024-02-11T18:22:00.189Z,7.07
2024-02-11T18:24:34.923Z,6.83
2024-02-11T18:30:02.935Z,7.23
2024-02-11T18:32:37.075Z,8.60
2024-02-11T18:35:28.778Z,6.20
2024-02-11T18:38:32.697Z,10.23
2024-02-11T18:41:03.900Z,6.40
2024-02-11T18:43:44.959Z,5.37
2024-02-11T18:46:23.148Z,9.37
2024-02-11T18:49:01.140Z,14.60
2024-02-11T18:51:39.080Z,15.37
2024-02-11T18:54:14.786Z,11.23
2024-02-11T18:56:52.420Z,9.83
2024-02-11T18:59:24.095Z,6.57
2024-02-11T19:01:55.179Z,9.30
2024-02-11T19:04:29.216Z,10.00
2024-02-11T19:07:04.620Z,10.00
2024-02-11T19:09:45.447Z,9.53
2024-02-11T19:12:20.813Z,8.93
2024-02-11T19:14:53.149Z,8.27
2024-02-11T19:17:27.070Z,8.67
2024-02-11T19:20:01.882Z,9.00
2024-02-11T19:22:51.563Z,8.10
2024-02-11T19:25:24.055Z,3.73
2024-02-11T19:28:00.263Z,6.93
2024-02-11T19:30:37.238Z,9.37
2024-02-11T19:33:16.569Z,12.83
2024-02-11T19:36:03.362Z,9.07
2024-02-11T19:38:41.645Z,14.50
2024-02-11T19:41:15.302Z,15.23
2024-02-11T19:43:50.723Z,19.33
2024-02-11T19:46:20.586Z,32.77
2024-02-11T19:48:58.919Z,19.40
2024-02-11T19:51:34.238Z,10.50
2024-02-11T19:54:07.899Z,13.23
2024-02-11T19:56:39.807Z,17.83
2024-02-11T19:59:17.462Z,20.90
2024-02-11T20:01:54.239Z,12.23
2024-02-11T20:04:32.039Z,13.87
2024-02-11T20:07:11.193Z,12.90
2024-02-11T20:09:48.049Z,10.50
2024-02-11T20:12:27.196Z,11.07
2024-02-11T20:15:00.234Z,12.10
2024-02-11T20:17:36.004Z,16.00
2024-02-11T20:20:07.379Z,10.00
2024-02-11T20:22:40.583Z,8.13
2024-02-11T20:25:15.979Z,8.73
2024-02-11T20:27:47.880Z,4.30
2024-02-11T20:30:17.896Z,8.45
2024-02-11T20:35:52.762Z,9.82
2024-02-11T20:38:29.150Z,9.03
2024-02-11T20:41:16.413Z,10.80
2024-02-11T20:43:53.876Z,14.83
2024-02-11T20:46:29.433Z,9.73
2024-02-11T20:49:01.702Z,14.40
2024-02-11T20:51:34.096Z,16.37
2024-02-11T20:54:08.841Z,14.30
2024-02-11T20:56:44.694Z,8.60
2024-02-11T20:59:19.821Z,12.30
2024-02-11T21:01:56.349Z,15.13
2024-02-11T21:04:27.886Z,17.37
2024-02-11T21:07:12.242Z,12.03
2024-02-11T21:10:02.239Z,14.20
2024-02-11T21:12:40.580Z,17.17
2024-02-11T21:15:16.464Z,10.10
2024-02-11T21:17:50.674Z,11.27
2024-02-11T21:20:28.970Z,14.73
2024-02-11T21:23:04.894Z,13.53
2024-02-11T21:25:40.870Z,17.77
2024-02-11T21:28:15.743Z,13.63
2024-02-11T21:30:46.101Z,41.10
2024-02-11T21:33:34.906Z,23.10
2024-02-11T21:36:10.779Z,18.43
2024-02-11T21:38:52.857Z,21.07
2024-02-11T21:41:28.273Z,19.10
2024-02-11T21:44:01.069Z,16.57
2024-02-11T21:46:36.154Z,19.17
2024-02-11T21:49:06.242Z,25.03
2024-02-11T21:51:42.790Z,17.30
2024-02-11T21:54:13.589Z,17.37
2024-02-11T21:56:52.680Z,9.00
2024-02-11T21:59:32.892Z,22.07
2024-02-11T22:02:13.348Z,13.47
2024-02-11T22:04:46.279Z,7.70
2024-02-11T22:07:18.106Z,18.27
2024-02-11T22:12:19.639Z,15.07
2024-02-11T22:15:05.067Z,17.60
2024-02-11T22:20:22.485Z,11.10
2024-02-11T22:22:53.607Z,15.10
2024-02-11T22:25:31.655Z,11.63
2024-02-11T22:28:07.754Z,8.00
2024-02-11T22:30:42.612Z,5.37
2024-02-11T22:33:18.604Z,7.20
2024-02-11T22:35:56.183Z,4.97
2024-02-11T22:38:33.373Z,6.63
2024-02-11T22:41:20.635Z,8.97
2024-02-11T22:43:52.733Z,8.30
2024-02-11T22:46:28.817Z,7.30
2024-02-11T22:49:05.396Z,7.40
2024-02-11T22:54:42.201Z,4.97
2024-02-11T22:57:38.015Z,5.40
2024-02-11T23:00:41.354Z,5.70
2024-02-11T23:03:16.841Z,4.97
2024-02-11T23:05:53.222Z,4.77
2024-02-11T23:08:28.192Z,4.63
2024-02-11T23:11:13.705Z,8.63
2024-02-11T23:13:59.115Z,13.23
2024-02-11T23:16:41.632Z,6.97
2024-02-11T23:19:30.545Z,9.70
2024-02-11T23:22:01.488Z,5.70
2024-02-11T23:24:39.157Z,7.63
2024-02-11T23:27:10.919Z,7.37
2024-02-11T23:29:57.172Z,6.57
2024-02-11T23:32:35.431Z,10.83
2024-02-11T23:35:09.866Z,10.50
2024-02-11T23:37:50.566Z,8.90
2024-02-11T23:40:24.049Z,9.50
2024-02-11T23:42:56.994Z,5.70
2024-02-11T23:45:38.181Z,6.30
2024-02-11T23:48:19.105Z,5.82
2024-02-11T23:50:54.009Z,8.57
2024-02-11T23:53:31.439Z,4.87
2024-02-11T23:56:01.984Z,1.40
2024-02-11T23:58:36.302Z,2.00
